sensor_id;sensor_type;location;lat;lon;timestamp;pressure;altitude;pressure_sealevel;temperature;humidity
35577;BME280;21680;52.400;16.920;2023-10-09T00:01:42;101562.42;;;5.18;75.42
35577;BME280;21680;52.400;16.920;2023-10-09T00:04:12;101558.90;;;5.18;75.74
35577;BME280;21680;52.400;16.920;2023-10-09T00:06:39;101568.45;;;5.19;75.86
35577;BME280;21680;52.400;16.920;2023-10-09T00:09:08;101574.84;;;5.18;75.88
35577;BME280;21680;52.400;16.920;2023-10-09T00:11:50;101567.23;;;5.16;76.20
35577;BME280;21680;52.400;16.920;2023-10-09T00:14:26;101556.59;;;5.18;76.28
35577;BME280;21680;52.400;16.920;2023-10-09T00:16:52;101549.85;;;5.19;76.43
35577;BME280;21680;52.400;16.920;2023-10-09T00:19:50;101548.02;;;5.22;76.61
35577;BME280;21680;52.400;16.920;2023-10-09T00:22:25;101547.14;;;5.22;76.59
35577;BME280;21680;52.400;16.920;2023-10-09T00:24:56;101543.96;;;5.21;76.70
35577;BME280;21680;52.400;16.920;2023-10-09T00:27:38;101545.96;;;5.18;76.69
35577;BME280;21680;52.400;16.920;2023-10-09T00:30:09;101546.33;;;5.15;76.69
35577;BME280;21680;52.400;16.920;2023-10-09T00:32:34;101546.70;;;5.14;77.00
35577;BME280;21680;52.400;16.920;2023-10-09T00:35:03;101543.67;;;5.15;77.17
35577;BME280;21680;52.400;16.920;2023-10-09T00:37:48;101543.33;;;5.14;77.28
35577;BME280;21680;52.400;16.920;2023-10-09T00:40:16;101533.60;;;5.12;77.29
35577;BME280;21680;52.400;16.920;2023-10-09T00:42:52;101528.12;;;5.10;77.44
35577;BME280;21680;52.400;16.920;2023-10-09T00:45:21;101519.80;;;5.09;77.54
35577;BME280;21680;52.400;16.920;2023-10-09T00:47:52;101517.14;;;5.10;77.67
35577;BME280;21680;52.400;16.920;2023-10-09T00:50:22;101511.99;;;5.11;77.76
35577;BME280;21680;52.400;16.920;2023-10-09T00:52:52;101503.83;;;5.13;77.86
35577;BME280;21680;52.400;16.920;2023-10-09T00:55:26;101499.55;;;5.17;78.18
35577;BME280;21680;52.400;16.920;2023-10-09T00:58:03;101498.05;;;5.24;78.30
35577;BME280;21680;52.400;16.920;2023-10-09T01:00:35;101501.06;;;5.23;78.09
35577;BME280;21680;52.400;16.920;2023-10-09T01:03:10;101505.33;;;5.21;78.24
35577;BME280;21680;52.400;16.920;2023-10-09T01:05:43;101501.60;;;5.22;78.26
35577;BME280;21680;52.400;16.920;2023-10-09T01:08:20;101505.30;;;5.24;78.43
35577;BME280;21680;52.400;16.920;2023-10-09T01:11:05;101502.65;;;5.23;78.49
35577;BME280;21680;52.400;16.920;2023-10-09T01:13:44;101495.94;;;5.21;78.58
35577;BME280;21680;52.400;16.920;2023-10-09T01:16:17;101484.97;;;5.20;78.66
35577;BME280;21680;52.400;16.920;2023-10-09T01:18:43;101492.26;;;5.20;78.82
35577;BME280;21680;52.400;16.920;2023-10-09T01:21:10;101497.59;;;5.19;78.96
35577;BME280;21680;52.400;16.920;2023-10-09T01:23:44;101496.00;;;5.18;78.97
35577;BME280;21680;52.400;16.920;2023-10-09T01:26:38;101488.16;;;5.20;78.98
35577;BME280;21680;52.400;16.920;2023-10-09T01:31:47;101485.79;;;5.28;79.17
35577;BME280;21680;52.400;16.920;2023-10-09T01:34:27;101482.57;;;5.31;79.17
35577;BME280;21680;52.400;16.920;2023-10-09T01:37:14;101477.40;;;5.34;79.43
35577;BME280;21680;52.400;16.920;2023-10-09T01:39:55;101477.02;;;5.37;79.18
35577;BME280;21680;52.400;16.920;2023-10-09T01:42:24;101478.42;;;5.40;79.43
35577;BME280;21680;52.400;16.920;2023-10-09T01:44:55;101479.11;;;5.42;79.32
35577;BME280;21680;52.400;16.920;2023-10-09T01:47:23;101477.50;;;5.43;79.40
35577;BME280;21680;52.400;16.920;2023-10-09T01:49:51;101470.41;;;5.44;79.57
35577;BME280;21680;52.400;16.920;2023-10-09T01:52:19;101460.64;;;5.45;79.60
35577;BME280;21680;52.400;16.920;2023-10-09T01:54:46;101455.12;;;5.48;79.51
35577;BME280;21680;52.400;16.920;2023-10-09T01:57:13;101443.22;;;5.51;79.65
35577;BME280;21680;52.400;16.920;2023-10-09T01:59:39;101441.25;;;5.53;79.70
35577;BME280;21680;52.400;16.920;2023-10-09T02:02:17;101437.63;;;5.60;79.67
35577;BME280;21680;52.400;16.920;2023-10-09T02:04:57;101431.73;;;5.65;79.87
35577;BME280;21680;52.400;16.920;2023-10-09T02:07:49;101425.09;;;5.72;80.05
35577;BME280;21680;52.400;16.920;2023-10-09T02:10:21;101424.70;;;5.76;79.87
35577;BME280;21680;52.400;16.920;2023-10-09T02:12:50;101424.80;;;5.82;80.05
35577;BME280;21680;52.400;16.920;2023-10-09T02:15:31;101412.52;;;5.87;80.08
35577;BME280;21680;52.400;16.920;2023-10-09T02:18:09;101408.41;;;5.91;80.12
35577;BME280;21680;52.400;16.920;2023-10-09T02:23:21;101399.09;;;5.99;80.12
35577;BME280;21680;52.400;16.920;2023-10-09T02:25:55;101398.84;;;6.04;80.14
35577;BME280;21680;52.400;16.920;2023-10-09T02:28:21;101395.94;;;6.10;80.27
35577;BME280;21680;52.400;16.920;2023-10-09T02:30:46;101394.99;;;6.14;80.24
35577;BME280;21680;52.400;16.920;2023-10-09T02:33:16;101393.17;;;6.17;80.11
35577;BME280;21680;52.400;16.920;2023-10-09T02:35:58;101392.96;;;6.20;79.94
35577;BME280;21680;52.400;16.920;2023-10-09T02:38:32;101390.42;;;6.24;80.07
35577;BME280;21680;52.400;16.920;2023-10-09T02:41:02;101385.77;;;6.27;80.14
35577;BME280;21680;52.400;16.920;2023-10-09T02:43:28;101383.08;;;6.29;80.17
35577;BME280;21680;52.400;16.920;2023-10-09T02:46:00;101376.30;;;6.31;80.09
35577;BME280;21680;52.400;16.920;2023-10-09T02:48:31;101373.42;;;6.33;80.27
35577;BME280;21680;52.400;16.920;2023-10-09T02:51:01;101365.61;;;6.34;80.20
35577;BME280;21680;52.400;16.920;2023-10-09T02:53:27;101358.14;;;6.35;80.22
35577;BME280;21680;52.400;16.920;2023-10-09T02:55:55;101344.27;;;6.37;80.10
35577;BME280;21680;52.400;16.920;2023-10-09T02:58:41;101329.88;;;6.38;80.15
35577;BME280;21680;52.400;16.920;2023-10-09T03:01:12;101311.49;;;6.33;80.19
35577;BME280;21680;52.400;16.920;2023-10-09T03:03:40;101300.59;;;6.26;80.17
35577;BME280;21680;52.400;16.920;2023-10-09T03:06:06;101292.73;;;6.18;80.24
35577;BME280;21680;52.400;16.920;2023-10-09T03:08:37;101286.23;;;6.13;80.24
35577;BME280;21680;52.400;16.920;2023-10-09T03:11:03;101282.56;;;6.09;80.38
35577;BME280;21680;52.400;16.920;2023-10-09T03:13:31;101280.29;;;6.07;80.40
35577;BME280;21680;52.400;16.920;2023-10-09T03:15:59;101274.98;;;6.06;80.34
35577;BME280;21680;52.400;16.920;2023-10-09T03:18:27;101268.08;;;6.05;80.51
35577;BME280;21680;52.400;16.920;2023-10-09T03:20:53;101268.10;;;6.04;80.58
35577;BME280;21680;52.400;16.920;2023-10-09T03:23:18;101258.69;;;6.05;80.65
35577;BME280;21680;52.400;16.920;2023-10-09T03:25:43;101248.71;;;6.06;80.66
35577;BME280;21680;52.400;16.920;2023-10-09T03:28:11;101244.63;;;6.08;80.72
35577;BME280;21680;52.400;16.920;2023-10-09T03:30:37;101223.99;;;6.10;80.80
35577;BME280;21680;52.400;16.920;2023-10-09T03:33:05;101215.25;;;6.13;80.97
35577;BME280;21680;52.400;16.920;2023-10-09T03:35:32;101216.45;;;6.16;80.86
35577;BME280;21680;52.400;16.920;2023-10-09T03:37:59;101212.00;;;6.17;80.83
35577;BME280;21680;52.400;16.920;2023-10-09T03:40:41;101213.91;;;6.19;80.93
35577;BME280;21680;52.400;16.920;2023-10-09T03:43:08;101216.95;;;6.18;80.94
35577;BME280;21680;52.400;16.920;2023-10-09T03:45:36;101213.77;;;6.17;80.96
35577;BME280;21680;52.400;16.920;2023-10-09T03:48:03;101210.23;;;6.17;81.04
35577;BME280;21680;52.400;16.920;2023-10-09T03:50:37;101207.52;;;6.20;81.09
35577;BME280;21680;52.400;16.920;2023-10-09T03:53:04;101204.08;;;6.24;81.21
35577;BME280;21680;52.400;16.920;2023-10-09T03:55:32;101202.08;;;6.27;81.15
35577;BME280;21680;52.400;16.920;2023-10-09T03:57:57;101196.91;;;6.28;81.16
35577;BME280;21680;52.400;16.920;2023-10-09T04:00:24;101193.52;;;6.29;81.08
35577;BME280;21680;52.400;16.920;2023-10-09T04:02:54;101192.24;;;6.31;81.09
35577;BME280;21680;52.400;16.920;2023-10-09T04:05:20;101187.77;;;6.33;81.23
35577;BME280;21680;52.400;16.920;2023-10-09T04:07:45;101188.09;;;6.35;81.26
35577;BME280;21680;52.400;16.920;2023-10-09T04:10:11;101183.98;;;6.37;81.29
35577;BME280;21680;52.400;16.920;2023-10-09T04:12:59;101188.23;;;6.38;81.41
35577;BME280;21680;52.400;16.920;2023-10-09T04:15:26;101182.65;;;6.42;81.35
35577;BME280;21680;52.400;16.920;2023-10-09T04:17:55;101177.06;;;6.46;81.41
35577;BME280;21680;52.400;16.920;2023-10-09T04:20:22;101171.65;;;6.51;81.29
35577;BME280;21680;52.400;16.920;2023-10-09T04:22:47;101171.92;;;6.56;81.18
35577;BME280;21680;52.400;16.920;2023-10-09T04:25:19;101175.41;;;6.59;81.26
35577;BME280;21680;52.400;16.920;2023-10-09T04:27:56;101181.93;;;6.62;81.33
35577;BME280;21680;52.400;16.920;2023-10-09T04:30:38;101175.48;;;6.64;81.08
35577;BME280;21680;52.400;16.920;2023-10-09T04:33:08;101169.10;;;6.64;81.01
35577;BME280;21680;52.400;16.920;2023-10-09T04:35:54;101167.66;;;6.65;81.08
35577;BME280;21680;52.400;16.920;2023-10-09T04:38:39;101164.23;;;6.68;81.19
35577;BME280;21680;52.400;16.920;2023-10-09T04:41:18;101171.49;;;6.69;81.14
35577;BME280;21680;52.400;16.920;2023-10-09T04:43:52;101171.66;;;6.70;81.23
35577;BME280;21680;52.400;16.920;2023-10-09T04:46:28;101167.23;;;6.69;81.24
35577;BME280;21680;52.400;16.920;2023-10-09T04:48:53;101167.41;;;6.69;81.19
35577;BME280;21680;52.400;16.920;2023-10-09T04:51:19;101169.02;;;6.68;81.12
35577;BME280;21680;52.400;16.920;2023-10-09T04:53:48;101166.94;;;6.66;81.19
35577;BME280;21680;52.400;16.920;2023-10-09T04:56:32;101164.36;;;6.61;81.24
35577;BME280;21680;52.400;16.920;2023-10-09T04:58:58;101166.73;;;6.59;81.33
35577;BME280;21680;52.400;16.920;2023-10-09T05:01:29;101168.70;;;6.57;81.32
35577;BME280;21680;52.400;16.920;2023-10-09T05:04:02;101175.81;;;6.57;81.31
35577;BME280;21680;52.400;16.920;2023-10-09T05:06:29;101164.83;;;6.56;81.39
35577;BME280;21680;52.400;16.920;2023-10-09T05:09:13;101156.89;;;6.53;81.44
35577;BME280;21680;52.400;16.920;2023-10-09T05:11:40;101162.60;;;6.51;81.41
35577;BME280;21680;52.400;16.920;2023-10-09T05:14:17;101157.46;;;6.50;81.68
35577;BME280;21680;52.400;16.920;2023-10-09T05:16:51;101166.14;;;6.52;81.67
35577;BME280;21680;52.400;16.920;2023-10-09T05:19:23;101162.79;;;6.50;81.75
35577;BME280;21680;52.400;16.920;2023-10-09T05:22:08;101156.10;;;6.47;81.84
35577;BME280;21680;52.400;16.920;2023-10-09T05:24:43;101153.09;;;6.47;81.88
35577;BME280;21680;52.400;16.920;2023-10-09T05:27:10;101153.97;;;6.47;82.00
35577;BME280;21680;52.400;16.920;2023-10-09T05:29:49;101155.54;;;6.48;82.21
35577;BME280;21680;52.400;16.920;2023-10-09T05:32:25;101153.74;;;6.50;82.18
35577;BME280;21680;52.400;16.920;2023-10-09T05:34:55;101155.31;;;6.52;82.32
35577;BME280;21680;52.400;16.920;2023-10-09T05:37:27;101152.43;;;6.54;82.39
35577;BME280;21680;52.400;16.920;2023-10-09T05:40:00;101145.81;;;6.57;82.48
35577;BME280;21680;52.400;16.920;2023-10-09T05:42:26;101141.89;;;6.58;82.44
35577;BME280;21680;52.400;16.920;2023-10-09T05:50:32;101117.12;;;6.62;82.73
35577;BME280;21680;52.400;16.920;2023-10-09T05:53:02;101122.59;;;6.64;82.78
35577;BME280;21680;52.400;16.920;2023-10-09T05:55:28;101124.66;;;6.66;82.98
35577;BME280;21680;52.400;16.920;2023-10-09T05:58:13;101121.06;;;6.69;83.03
35577;BME280;21680;52.400;16.920;2023-10-09T06:00:57;101111.80;;;6.70;83.06
35577;BME280;21680;52.400;16.920;2023-10-09T06:03:31;101101.13;;;6.71;83.13
35577;BME280;21680;52.400;16.920;2023-10-09T06:06:19;101095.23;;;6.73;83.24
35577;BME280;21680;52.400;16.920;2023-10-09T06:09:05;101096.27;;;6.74;83.38
35577;BME280;21680;52.400;16.920;2023-10-09T06:11:47;101094.84;;;6.75;83.56
35577;BME280;21680;52.400;16.920;2023-10-09T06:14:24;101096.97;;;6.75;83.94
35577;BME280;21680;52.400;16.920;2023-10-09T06:16:57;101097.11;;;6.76;83.82
35577;BME280;21680;52.400;16.920;2023-10-09T06:19:24;101092.95;;;6.79;83.90
35577;BME280;21680;52.400;16.920;2023-10-09T06:21:54;101091.66;;;6.82;83.88
35577;BME280;21680;52.400;16.920;2023-10-09T06:24:30;101089.13;;;6.84;83.99
35577;BME280;21680;52.400;16.920;2023-10-09T06:27:03;101093.70;;;6.87;84.16
35577;BME280;21680;52.400;16.920;2023-10-09T06:29:31;101099.67;;;6.90;84.13
35577;BME280;21680;52.400;16.920;2023-10-09T06:32:09;101104.84;;;6.90;84.14
35577;BME280;21680;52.400;16.920;2023-10-09T06:34:41;101109.09;;;6.91;84.47
35577;BME280;21680;52.400;16.920;2023-10-09T06:37:10;101104.25;;;6.92;84.47
35577;BME280;21680;52.400;16.920;2023-10-09T06:39:54;101095.64;;;6.96;84.61
35577;BME280;21680;52.400;16.920;2023-10-09T06:42:26;101096.42;;;7.01;84.79
35577;BME280;21680;52.400;16.920;2023-10-09T06:45:09;101092.77;;;7.06;84.84
35577;BME280;21680;52.400;16.920;2023-10-09T06:47:46;101097.12;;;7.10;85.00
35577;BME280;21680;52.400;16.920;2023-10-09T06:50:21;101100.02;;;7.15;85.02
35577;BME280;21680;52.400;16.920;2023-10-09T06:52:48;101105.23;;;7.20;85.09
35577;BME280;21680;52.400;16.920;2023-10-09T06:55:24;101116.31;;;7.26;85.33
35577;BME280;21680;52.400;16.920;2023-10-09T06:58:00;101117.08;;;7.31;85.29
35577;BME280;21680;52.400;16.920;2023-10-09T07:00:42;101124.40;;;7.37;85.37
35577;BME280;21680;52.400;16.920;2023-10-09T07:03:26;101123.77;;;7.42;85.33
35577;BME280;21680;52.400;16.920;2023-10-09T07:06:18;101121.26;;;7.51;85.63
35577;BME280;21680;52.400;16.920;2023-10-09T07:08:56;101122.23;;;7.62;85.78
35577;BME280;21680;52.400;16.920;2023-10-09T07:11:44;101121.48;;;7.71;85.83
35577;BME280;21680;52.400;16.920;2023-10-09T07:14:23;101122.88;;;7.79;85.86
35577;BME280;21680;52.400;16.920;2023-10-09T07:17:03;101119.46;;;7.87;86.01
35577;BME280;21680;52.400;16.920;2023-10-09T07:19:42;101117.79;;;7.97;86.22
35577;BME280;21680;52.400;16.920;2023-10-09T07:22:08;101114.05;;;8.04;86.13
35577;BME280;21680;52.400;16.920;2023-10-09T07:24:51;101111.13;;;8.07;86.16
35577;BME280;21680;52.400;16.920;2023-10-09T07:27:23;101107.40;;;8.13;86.19
35577;BME280;21680;52.400;16.920;2023-10-09T07:30:08;101103.55;;;8.18;86.24
35577;BME280;21680;52.400;16.920;2023-10-09T07:32:58;101103.20;;;8.24;86.35
35577;BME280;21680;52.400;16.920;2023-10-09T07:35:44;101105.00;;;8.30;86.31
35577;BME280;21680;52.400;16.920;2023-10-09T07:38:11;101099.45;;;8.31;86.28
35577;BME280;21680;52.400;16.920;2023-10-09T07:40:37;101105.11;;;8.34;86.35
35577;BME280;21680;52.400;16.920;2023-10-09T07:43:39;101104.20;;;8.41;86.39
35577;BME280;21680;52.400;16.920;2023-10-09T07:46:19;101112.84;;;8.51;86.51
35577;BME280;21680;52.400;16.920;2023-10-09T07:49:17;101116.63;;;8.62;86.65
35577;BME280;21680;52.400;16.920;2023-10-09T07:51:50;101115.61;;;8.67;86.48
35577;BME280;21680;52.400;16.920;2023-10-09T07:54:18;101118.52;;;8.71;86.52
35577;BME280;21680;52.400;16.920;2023-10-09T07:56:58;101102.95;;;8.73;86.41
35577;BME280;21680;52.400;16.920;2023-10-09T07:59:35;101092.23;;;8.74;86.40
35577;BME280;21680;52.400;16.920;2023-10-09T08:02:19;101077.46;;;8.79;86.50
35577;BME280;21680;52.400;16.920;2023-10-09T08:04:56;101080.35;;;8.85;86.59
35577;BME280;21680;52.400;16.920;2023-10-09T08:07:28;101078.98;;;8.89;86.41
35577;BME280;21680;52.400;16.920;2023-10-09T08:10:05;101086.06;;;8.90;86.32
35577;BME280;21680;52.400;16.920;2023-10-09T08:12:43;101093.00;;;8.91;86.27
35577;BME280;21680;52.400;16.920;2023-10-09T08:15:15;101099.80;;;8.96;86.33
35577;BME280;21680;52.400;16.920;2023-10-09T08:17:55;101099.77;;;8.97;86.22
35577;BME280;21680;52.400;16.920;2023-10-09T08:20:44;101096.02;;;9.03;86.31
35577;BME280;21680;52.400;16.920;2023-10-09T08:23:27;101088.14;;;9.10;86.23
35577;BME280;21680;52.400;16.920;2023-10-09T08:26:14;101081.87;;;9.17;86.23
35577;BME280;21680;52.400;16.920;2023-10-09T08:28:41;101082.38;;;9.24;86.26
35577;BME280;21680;52.400;16.920;2023-10-09T08:31:11;101086.98;;;9.30;86.17
35577;BME280;21680;52.400;16.920;2023-10-09T08:34:06;101102.73;;;9.29;85.95
35577;BME280;21680;52.400;16.920;2023-10-09T08:36:35;101103.98;;;9.34;86.13
35577;BME280;21680;52.400;16.920;2023-10-09T08:39:03;101093.71;;;9.37;86.01
35577;BME280;21680;52.400;16.920;2023-10-09T08:41:51;101082.98;;;9.39;85.97
35577;BME280;21680;52.400;16.920;2023-10-09T08:44:19;101076.72;;;9.39;85.92
35577;BME280;21680;52.400;16.920;2023-10-09T08:46:49;101078.71;;;9.38;85.85
35577;BME280;21680;52.400;16.920;2023-10-09T08:49:15;101070.89;;;9.38;85.68
35577;BME280;21680;52.400;16.920;2023-10-09T08:51:41;101064.23;;;9.39;85.75
35577;BME280;21680;52.400;16.920;2023-10-09T08:54:08;101067.02;;;9.41;85.71
35577;BME280;21680;52.400;16.920;2023-10-09T08:56:37;101063.54;;;9.44;85.79
35577;BME280;21680;52.400;16.920;2023-10-09T08:59:05;101063.13;;;9.51;85.67
35577;BME280;21680;52.400;16.920;2023-10-09T09:01:30;101064.08;;;9.56;85.57
35577;BME280;21680;52.400;16.920;2023-10-09T09:03:57;101063.29;;;9.58;85.64
35577;BME280;21680;52.400;16.920;2023-10-09T09:06:25;101067.31;;;9.60;85.38
35577;BME280;21680;52.400;16.920;2023-10-09T09:08:51;101071.24;;;9.60;85.26
35577;BME280;21680;52.400;16.920;2023-10-09T09:11:25;101073.09;;;9.63;85.30
35577;BME280;21680;52.400;16.920;2023-10-09T09:16:23;101068.43;;;9.64;85.18
35577;BME280;21680;52.400;16.920;2023-10-09T09:18:56;101075.51;;;9.71;85.17
35577;BME280;21680;52.400;16.920;2023-10-09T09:21:47;101074.25;;;9.82;85.22
35577;BME280;21680;52.400;16.920;2023-10-09T09:24:14;101076.38;;;9.98;85.27
35577;BME280;21680;52.400;16.920;2023-10-09T09:26:40;101076.23;;;10.13;84.98
35577;BME280;21680;52.400;16.920;2023-10-09T09:29:15;101071.05;;;10.18;84.97
35577;BME280;21680;52.400;16.920;2023-10-09T09:31:52;101073.04;;;10.24;84.80
35577;BME280;21680;52.400;16.920;2023-10-09T09:34:18;101079.29;;;10.33;84.95
35577;BME280;21680;52.400;16.920;2023-10-09T09:36:51;101067.00;;;10.42;84.84
35577;BME280;21680;52.400;16.920;2023-10-09T09:39:26;101061.85;;;10.51;84.88
35577;BME280;21680;52.400;16.920;2023-10-09T09:42:00;101060.36;;;10.66;84.91
35577;BME280;21680;52.400;16.920;2023-10-09T09:44:39;101054.09;;;10.82;84.79
35577;BME280;21680;52.400;16.920;2023-10-09T09:47:14;101048.61;;;10.89;84.73
35577;BME280;21680;52.400;16.920;2023-10-09T09:49:52;101043.98;;;10.89;84.39
35577;BME280;21680;52.400;16.920;2023-10-09T09:52:19;101046.94;;;10.82;84.15
35577;BME280;21680;52.400;16.920;2023-10-09T09:54:44;101047.51;;;10.85;84.38
35577;BME280;21680;52.400;16.920;2023-10-09T09:57:16;101049.39;;;10.92;84.33
35577;BME280;21680;52.400;16.920;2023-10-09T09:59:51;101043.63;;;10.93;84.06
35577;BME280;21680;52.400;16.920;2023-10-09T10:02:27;101031.36;;;11.00;84.13
35577;BME280;21680;52.400;16.920;2023-10-09T10:04:55;101035.89;;;10.99;83.70
35577;BME280;21680;52.400;16.920;2023-10-09T10:07:23;101040.55;;;10.99;83.75
35577;BME280;21680;52.400;16.920;2023-10-09T10:09:50;101037.92;;;11.06;83.66
35577;BME280;21680;52.400;16.920;2023-10-09T10:15:22;101036.09;;;11.17;83.12
35577;BME280;21680;52.400;16.920;2023-10-09T10:20:24;101040.88;;;11.26;83.12
35577;BME280;21680;52.400;16.920;2023-10-09T10:22:51;101046.66;;;11.29;82.66
35577;BME280;21680;52.400;16.920;2023-10-09T10:25:36;101045.30;;;11.36;82.60
35577;BME280;21680;52.400;16.920;2023-10-09T10:28:25;101048.91;;;11.40;82.48
35577;BME280;21680;52.400;16.920;2023-10-09T10:30:56;101042.84;;;11.36;82.24
35577;BME280;21680;52.400;16.920;2023-10-09T10:33:25;101045.23;;;11.43;82.21
35577;BME280;21680;52.400;16.920;2023-10-09T10:35:52;101046.17;;;11.51;82.17
35577;BME280;21680;52.400;16.920;2023-10-09T10:38:28;101045.62;;;11.51;81.69
35577;BME280;21680;52.400;16.920;2023-10-09T10:41:16;101048.15;;;11.32;81.33
35577;BME280;21680;52.400;16.920;2023-10-09T10:43:43;101046.89;;;11.24;81.29
35577;BME280;21680;52.400;16.920;2023-10-09T10:46:19;101048.09;;;11.25;81.12
35577;BME280;21680;52.400;16.920;2023-10-09T10:49:06;101046.51;;;11.38;81.33
35577;BME280;21680;52.400;16.920;2023-10-09T10:51:46;101047.44;;;11.46;81.07
35577;BME280;21680;52.400;16.920;2023-10-09T10:54:23;101047.80;;;11.46;80.84
35577;BME280;21680;52.400;16.920;2023-10-09T10:57:19;101050.34;;;11.49;80.78
35577;BME280;21680;52.400;16.920;2023-10-09T11:00:16;101044.64;;;11.45;80.43
35577;BME280;21680;52.400;16.920;2023-10-09T11:03:00;101042.09;;;11.32;80.17
35577;BME280;21680;52.400;16.920;2023-10-09T11:05:41;101039.83;;;11.22;80.24
35577;BME280;21680;52.400;16.920;2023-10-09T11:08:10;101041.56;;;11.19;80.16
35577;BME280;21680;52.400;16.920;2023-10-09T11:10:35;101031.09;;;11.16;79.98
35577;BME280;21680;52.400;16.920;2023-10-09T11:13:26;101023.83;;;11.19;80.13
35577;BME280;21680;52.400;16.920;2023-10-09T11:16:04;101024.93;;;11.27;80.03
35577;BME280;21680;52.400;16.920;2023-10-09T11:18:54;101026.44;;;11.34;79.95
35577;BME280;21680;52.400;16.920;2023-10-09T11:21:22;101021.94;;;11.35;79.75
35577;BME280;21680;52.400;16.920;2023-10-09T11:23:56;101023.54;;;11.35;79.57
35577;BME280;21680;52.400;16.920;2023-10-09T11:26:46;101024.59;;;11.27;79.42
35577;BME280;21680;52.400;16.920;2023-10-09T11:29:19;101026.03;;;11.18;79.27
35577;BME280;21680;52.400;16.920;2023-10-09T11:32:05;101020.72;;;11.07;79.24
35577;BME280;21680;52.400;16.920;2023-10-09T11:34:32;101012.35;;;11.06;79.30
35577;BME280;21680;52.400;16.920;2023-10-09T11:36:59;101000.73;;;11.11;79.21
35577;BME280;21680;52.400;16.920;2023-10-09T11:39:27;100995.23;;;11.15;79.23
35577;BME280;21680;52.400;16.920;2023-10-09T11:42:03;100995.99;;;11.26;79.22
35577;BME280;21680;52.400;16.920;2023-10-09T11:44:42;100996.95;;;11.37;79.30
35577;BME280;21680;52.400;16.920;2023-10-09T11:47:11;100989.63;;;11.46;79.10
35577;BME280;21680;52.400;16.920;2023-10-09T11:49:56;100991.14;;;11.57;79.08
35577;BME280;21680;52.400;16.920;2023-10-09T11:52:36;100993.33;;;11.60;78.90
35577;BME280;21680;52.400;16.920;2023-10-09T11:55:11;100992.42;;;11.65;78.92
35577;BME280;21680;52.400;16.920;2023-10-09T11:57:41;100994.13;;;11.62;78.86
35577;BME280;21680;52.400;16.920;2023-10-09T12:00:07;100990.23;;;11.61;78.60
35577;BME280;21680;52.400;16.920;2023-10-09T12:02:36;100992.73;;;11.61;78.56
35577;BME280;21680;52.400;16.920;2023-10-09T12:05:10;100990.80;;;11.57;78.45
35577;BME280;21680;52.400;16.920;2023-10-09T12:07:43;100986.27;;;11.58;78.49
35577;BME280;21680;52.400;16.920;2023-10-09T12:10:09;100988.29;;;11.65;78.45
35577;BME280;21680;52.400;16.920;2023-10-09T12:12:35;100983.19;;;11.71;78.36
35577;BME280;21680;52.400;16.920;2023-10-09T12:15:01;100975.16;;;11.75;78.29
35577;BME280;21680;52.400;16.920;2023-10-09T12:17:30;100966.81;;;11.74;78.18
35577;BME280;21680;52.400;16.920;2023-10-09T12:19:55;100953.70;;;11.75;78.19
35577;BME280;21680;52.400;16.920;2023-10-09T12:22:21;100948.12;;;11.71;78.04
35577;BME280;21680;52.400;16.920;2023-10-09T12:24:47;100951.46;;;11.64;77.82
35577;BME280;21680;52.400;16.920;2023-10-09T12:27:12;100948.33;;;11.62;77.99
35577;BME280;21680;52.400;16.920;2023-10-09T12:29:38;100948.94;;;11.65;78.04
35577;BME280;21680;52.400;16.920;2023-10-09T12:32:09;100937.55;;;11.67;77.83
35577;BME280;21680;52.400;16.920;2023-10-09T12:34:36;100925.58;;;11.62;77.73
35577;BME280;21680;52.400;16.920;2023-10-09T12:37:03;100925.45;;;11.57;77.61
35577;BME280;21680;52.400;16.920;2023-10-09T12:39:29;100936.04;;;11.56;77.68
35577;BME280;21680;52.400;16.920;2023-10-09T12:42:05;100940.95;;;11.46;77.47
35577;BME280;21680;52.400;16.920;2023-10-09T12:44:34;100936.66;;;11.46;77.59
35577;BME280;21680;52.400;16.920;2023-10-09T12:47:07;100938.64;;;11.46;77.52
35577;BME280;21680;52.400;16.920;2023-10-09T12:49:32;100947.23;;;11.37;77.41
35577;BME280;21680;52.400;16.920;2023-10-09T12:51:58;100952.88;;;11.30;77.28
35577;BME280;21680;52.400;16.920;2023-10-09T12:54:26;100946.60;;;11.27;77.36
35577;BME280;21680;52.400;16.920;2023-10-09T12:56:53;100947.35;;;11.26;77.26
35577;BME280;21680;52.400;16.920;2023-10-09T12:59:18;100941.69;;;11.24;77.37
35577;BME280;21680;52.400;16.920;2023-10-09T13:01:45;100938.20;;;11.18;77.07
35577;BME280;21680;52.400;16.920;2023-10-09T13:04:14;100939.95;;;11.15;77.12
35577;BME280;21680;52.400;16.920;2023-10-09T13:06:46;100946.27;;;11.13;77.11
35577;BME280;21680;52.400;16.920;2023-10-09T13:09:12;100953.66;;;11.12;77.01
35577;BME280;21680;52.400;16.920;2023-10-09T13:11:39;100946.06;;;11.05;76.84
35577;BME280;21680;52.400;16.920;2023-10-09T13:14:08;100939.48;;;11.00;76.92
35577;BME280;21680;52.400;16.920;2023-10-09T13:16:41;100942.81;;;10.97;76.78
35577;BME280;21680;52.400;16.920;2023-10-09T13:19:07;100946.33;;;10.94;76.69
35577;BME280;21680;52.400;16.920;2023-10-09T13:21:36;100948.58;;;10.91;76.62
35577;BME280;21680;52.400;16.920;2023-10-09T13:24:06;100946.17;;;10.89;76.75
35577;BME280;21680;52.400;16.920;2023-10-09T13:26:39;100937.91;;;10.90;76.75
35577;BME280;21680;52.400;16.920;2023-10-09T13:29:06;100935.86;;;10.92;76.77
35577;BME280;21680;52.400;16.920;2023-10-09T13:31:35;100937.49;;;10.91;76.66
35577;BME280;21680;52.400;16.920;2023-10-09T13:34:06;100939.99;;;10.87;76.52
35577;BME280;21680;52.400;16.920;2023-10-09T13:36:34;100944.53;;;10.85;76.50
35577;BME280;21680;52.400;16.920;2023-10-09T13:39:05;100943.16;;;10.84;76.45